This is the latest recevied weather packets stored in our database for station/object KC4LZN. If no packets are shown the sender has not sent any weather packets the latest 1 day(s).
| Time | Temp. | Humidity | Pressure | Rain* | Wind** | Luminosity | Snow |
|---|---|---|---|---|---|---|---|
| 1778077731 | 26.67° C | 70% | 1018.4 hPa | 0 mm | - | 642 W/m² | - |
| 1778075916 | 25.56° C | 78% | 1018.1 hPa | 0 mm | - | 504 W/m² | - |
| 1778075612 | 25.56° C | 79% | 1018.3 hPa | 0 mm | - | 473 W/m² | - |
| 1778075005 | 25° C | 80% | 1018 hPa | 0 mm | - | 463 W/m² | - |
| 1778074096 | 25° C | 81% | 1017.9 hPa | 0 mm | - | 392 W/m² | - |
| 1778073793 | 24.44° C | 82% | 1017.8 hPa | 0 mm | - | 358 W/m² | - |
| 1778073491 | 24.44° C | 83% | 1017.8 hPa | 0 mm | - | 349 W/m² | - |
| 1778072279 | 24.44° C | 84% | 1017.8 hPa | 0 mm | - | 323 W/m² | - |
| 1778071976 | 23.89° C | 86% | 1017.9 hPa | 0 mm | - | 296 W/m² | - |
| 1778070464 | 21.11° C | 93% | 1017.8 hPa | 0 mm | - | 138 W/m² | - |
| 1778069253 | 20° C | 98% | 1017.3 hPa | 0 mm | - | 78 W/m² | - |
| 1778068951 | 18.89° C | 98% | 1017.3 hPa | 0 mm | - | 70 W/m² | - |
| 1778068044 | 18.33° C | 98% | 1017.3 hPa | 0 mm | - | 62 W/m² | - |
| 1778067440 | 17.78° C | 98% | 1017.1 hPa | 0 mm | - | 51 W/m² | - |
| 1778067137 | 17.78° C | 98% | 1017.4 hPa | 0 mm | - | 47 W/m² | - |
| 1778066833 | 17.78° C | 98% | 1017.2 hPa | 0 mm | - | 42 W/m² | - |
| 1778066531 | 17.22° C | 99% | 1017.1 hPa | 0 mm | - | 38 W/m² | - |
| 1778066228 | 17.22° C | 99% | 1017.2 hPa | 0 mm | - | 33 W/m² | - |
| 1778065926 | 16.67° C | 99% | 1017.2 hPa | 0 mm | - | 26 W/m² | - |
| 1778065623 | 16.67° C | 98% | 1016.9 hPa | 0 mm | - | 20 W/m² | - |
| 1778065017 | 16.11° C | 99% | 1017 hPa | 0 mm | - | 11 W/m² | - |
| 1778064412 | 16.11° C | 98% | 1016.9 hPa | 0 mm | - | 4 W/m² | - |
| 1778063806 | 16.67° C | 98% | 1016.6 hPa | 0 mm | - | 1 W/m² | - |
| 1778063503 | 17.22° C | 98% | 1016.6 hPa | 0 mm | - | 0 W/m² | - |
| 1778063201 | 16.67° C | 98% | 1016.6 hPa | 0 mm | - | 0 W/m² | - |
* Rain latest hour (hover to see other rain measurements)
** Current wind speed in m/s (hover to see current wind gust speed)